.
WxDataArchive / Data Records for 2016-03-10
2016-03-09 March 2016 2016-03-11

Data Records for Thursday, 10 March 2016

Time	Temp	Chill	HIndex	Humid	Dewpt	 Wind 	HiWind	WindDir	Rain 	Barom
-----	----	-----	------	-----	-----	------	------	-------	-----	-----
00:00	57.6	57.6	57.6	93	55.6	0	1	270	0.00	29.955 
00:05	57.6	57.6	57.6	93	55.6	0	0	---	0.00	29.955 
00:10	57.6	57.6	57.6	93	55.6	0	1	270	0.00	29.955 
00:15	57.6	57.6	57.6	93	55.6	0	1	270	0.00	29.952 
00:20	57.6	57.6	57.6	93	55.6	0	2	270	0.00	29.952 
00:25	57.6	57.6	57.6	93	55.6	0	2	270	0.00	29.952 
00:30	57.5	57.5	57.5	93	55.5	0	1	270	0.00	29.946 
00:35	57.5	57.5	57.5	93	55.5	0	1	270	0.00	29.946 
00:40	57.5	57.5	57.5	93	55.5	0	1	270	0.00	29.946 
00:45	57.5	57.5	57.5	93	55.5	0	1	270	0.00	29.949 
00:50	57.5	57.5	57.5	93	55.5	0	2	270	0.00	29.949 
00:55	57.5	57.5	57.5	93	55.5	0	1	270	0.00	29.949 
01:00	57.5	57.5	57.5	93	55.5	0	0	---	0.00	29.950 
01:05	57.5	57.5	57.5	93	55.5	0	2	270	0.00	29.950 
01:10	57.5	57.5	57.5	93	55.5	0	0	---	0.00	29.950 
01:15	57.5	57.5	57.5	93	55.5	0	1	270	0.00	29.940 
01:20	57.5	57.5	57.5	93	55.5	0	1	270	0.00	29.940 
01:25	57.5	57.5	57.5	93	55.5	0	1	270	0.00	29.940 
01:30	57.5	57.5	57.5	93	55.5	0	1	270	0.00	29.944 
01:35	57.5	57.5	57.5	93	55.5	0	1	270	0.00	29.944 
01:40	57.3	57.3	57.3	93	55.3	0	0	---	0.00	29.944 
01:45	57.3	57.3	57.3	93	55.3	0	1	270	0.00	29.947 
01:50	57.3	57.3	57.3	93	55.3	0	0	---	0.00	29.947 
01:55	57.3	57.3	57.3	93	55.3	0	1	270	0.00	29.947 
02:00	57.3	57.3	57.3	93	55.3	0	2	270	0.00	29.946 
02:05	57.2	57.2	57.2	93	55.2	0	0	---	0.00	29.946 
02:10	57.2	57.2	57.2	93	55.2	0	1	270	0.00	29.946 
02:15	57.2	57.2	57.2	93	55.2	0	1	270	0.00	29.953 
02:20	57.2	57.2	57.2	93	55.2	0	2	270	0.00	29.953 
02:25	57.2	57.2	57.2	93	55.2	0	2	270	0.00	29.953 
02:30	57.2	57.2	57.2	93	55.2	0	1	270	0.00	29.945 
02:35	57.2	57.2	57.2	93	55.2	0	1	270	0.00	29.945 
02:40	57.2	57.2	57.2	93	55.2	0	1	270	0.00	29.945 
02:45	57.2	57.2	57.2	93	55.2	0	1	270	0.00	29.938 
02:50	57.0	57.0	57.0	93	55.0	0	0	---	0.00	29.938 
02:55	57.0	57.0	57.0	93	55.0	0	0	---	0.00	29.938 
03:00	57.0	57.0	57.0	93	55.0	0	0	---	0.00	29.930 
03:05	57.0	57.0	57.0	93	55.0	0	0	---	0.00	29.930 
03:10	57.0	57.0	57.0	93	55.0	0	0	---	0.01	29.930 
03:15	57.0	57.0	57.0	94	55.3	0	0	---	0.00	29.936 
03:20	56.9	56.9	56.9	94	55.2	0	0	---	0.00	29.936 
03:25	56.9	56.9	56.9	94	55.2	0	1	270	0.00	29.936 
03:30	56.9	56.9	56.9	94	55.2	0	0	---	0.01	29.936 
03:35	56.9	56.9	56.9	94	55.2	0	0	---	0.01	29.936 
03:40	56.9	56.9	56.9	94	55.2	0	0	---	0.01	29.936 
03:45	56.7	56.7	56.7	94	55.0	0	0	---	0.01	29.933 
03:50	56.7	56.7	56.7	94	55.0	0	0	---	0.01	29.933 
03:55	56.6	56.6	56.6	94	54.9	0	0	---	0.01	29.933 
04:00	56.6	56.6	56.6	94	54.9	0	0	---	0.00	29.926 
04:05	56.6	56.6	56.6	94	54.9	0	0	---	0.01	29.926 
04:10	56.5	56.5	56.5	94	54.8	0	0	---	0.00	29.926 
04:15	56.5	56.5	56.5	94	54.8	0	0	---	0.00	29.925 
04:20	56.5	56.5	56.5	94	54.8	0	0	---	0.01	29.925 
04:25	56.3	56.3	56.3	94	54.6	0	0	---	0.00	29.925 
04:30	56.3	56.3	56.3	94	54.6	0	0	---	0.00	29.924 
04:35	56.2	56.2	56.2	94	54.5	0	0	---	0.01	29.924 
04:40	56.2	56.2	56.2	94	54.5	0	0	---	0.00	29.924 
04:45	56.2	56.2	56.2	94	54.5	0	0	---	0.01	29.926 
04:50	56.2	56.2	56.2	94	54.5	0	0	---	0.00	29.926 
04:55	56.2	56.2	56.2	94	54.5	0	0	---	0.01	29.926 
05:00	56.2	56.2	56.2	94	54.5	0	0	---	0.00	29.927 
05:05	56.2	56.2	56.2	95	54.8	0	0	---	0.01	29.927 
05:10	56.2	56.2	56.2	95	54.8	0	0	---	0.00	29.927 
05:15	56.2	56.2	56.2	95	54.8	0	0	---	0.01	29.925 
05:20	56.2	56.2	56.2	95	54.8	0	0	---	0.00	29.925 
05:25	56.3	56.3	56.3	95	54.9	0	0	---	0.01	29.925 
05:30	56.2	56.2	56.2	95	54.8	0	0	---	0.00	29.930 
05:35	56.2	56.2	56.2	95	54.8	0	0	---	0.01	29.930 
05:40	56.2	56.2	56.2	95	54.8	0	0	---	0.00	29.930 
05:45	56.0	56.0	56.0	95	54.6	0	0	---	0.00	29.931 
05:50	56.0	56.0	56.0	95	54.6	0	0	---	0.00	29.931 
05:55	56.0	56.0	56.0	95	54.6	0	0	---	0.01	29.931 
06:00	56.2	56.2	56.2	95	54.8	0	0	---	0.00	29.932 
06:05	56.2	56.2	56.2	95	54.8	0	0	---	0.00	29.932 
06:10	56.2	56.2	56.2	95	54.8	0	0	---	0.00	29.932 
06:15	56.0	56.0	56.0	95	54.6	0	0	---	0.00	29.941 
06:20	56.0	56.0	56.0	95	54.6	0	0	---	0.00	29.941 
06:25	56.0	56.0	56.0	95	54.6	0	0	---	0.00	29.941 
06:30	56.0	56.0	56.0	95	54.6	0	0	---	0.01	29.943 
06:35	56.0	56.0	56.0	95	54.6	0	0	---	0.00	29.943 
06:40	55.9	55.9	55.9	95	54.5	0	0	---	0.00	29.943 
06:45	55.9	55.9	55.9	95	54.5	0	0	---	0.01	29.937 
06:50	55.9	55.9	55.9	95	54.5	0	0	---	0.00	29.937 
06:55	55.9	55.9	55.9	95	54.5	0	0	---	0.01	29.937 
07:00	55.9	55.9	55.9	95	54.5	0	0	---	0.00	29.929 
07:05	55.9	55.9	55.9	96	54.8	0	0	---	0.00	29.929 
07:10	55.9	55.9	55.9	96	54.8	0	0	---	0.00	29.929 
07:15	55.9	55.9	55.9	96	54.8	0	0	---	0.00	29.937 
07:20	55.9	55.9	55.9	96	54.8	0	0	---	0.00	29.937 
07:25	55.7	55.7	55.7	95	54.3	0	0	---	0.00	29.937 
07:30	55.7	55.7	55.7	96	54.6	0	0	---	0.00	29.935 
07:35	55.7	55.7	55.7	96	54.6	0	0	---	0.01	29.935 
07:40	55.7	55.7	55.7	96	54.6	0	0	---	0.00	29.935 
07:45	55.7	55.7	55.7	96	54.6	0	0	---	0.00	29.931 
07:50	55.7	55.7	55.7	96	54.6	0	0	---	0.00	29.931 
07:55	55.7	55.7	55.7	96	54.6	0	0	---	0.00	29.931 
08:00	55.7	55.7	55.7	96	54.6	0	0	---	0.00	29.929 
08:05	55.7	55.7	55.7	96	54.6	0	0	---	0.00	29.929 
08:10	55.9	55.9	55.9	96	54.8	0	0	---	0.00	29.929 
08:15	55.9	55.9	55.9	96	54.8	0	0	---	0.00	29.934 
08:20	55.9	55.9	55.9	96	54.8	0	0	---	0.00	29.934 
08:25	56.0	56.0	56.0	96	54.9	0	0	---	0.00	29.934 
08:30	56.2	56.2	56.2	96	55.1	0	0	---	0.00	29.935 
08:35	56.3	56.3	56.3	96	55.2	0	0	---	0.00	29.935 
08:40	56.3	56.3	56.3	96	55.2	0	0	---	0.00	29.935 
08:45	56.5	56.5	56.5	96	55.4	0	0	---	0.00	29.944 
08:50	56.5	56.5	56.5	96	55.4	0	0	---	0.00	29.944 
08:55	56.5	56.5	56.5	96	55.4	0	0	---	0.00	29.944 
09:00	56.5	56.5	56.5	96	55.4	0	0	---	0.00	29.945 
09:05	56.5	56.5	56.5	96	55.4	0	0	---	0.01	29.945 
09:10	56.6	56.6	56.6	96	55.5	0	0	---	0.00	29.945 
09:15	56.6	56.6	56.6	96	55.5	0	0	---	0.00	29.946 
09:20	56.7	56.7	56.7	96	55.6	0	0	---	0.00	29.946 
09:25	56.7	56.7	56.7	96	55.6	0	0	---	0.00	29.946 
09:30	56.7	56.7	56.7	96	55.6	0	0	---	0.00	29.948 
09:35	56.9	56.9	56.9	96	55.8	0	0	---	0.00	29.948 
09:40	56.9	56.9	56.9	96	55.8	0	0	---	0.00	29.948 
09:45	57.0	57.0	57.0	96	55.9	0	0	---	0.01	29.953 
09:50	57.0	57.0	57.0	96	55.9	0	0	---	0.00	29.953 
09:55	57.0	57.0	57.0	96	55.9	0	0	---	0.00	29.953 
10:00	57.0	57.0	57.0	96	55.9	0	0	---	0.00	29.947 
10:05	57.0	57.0	57.0	96	55.9	0	1	202	0.00	29.947 
10:10	57.0	57.0	57.0	96	55.9	0	1	202	0.00	29.947 
10:15	56.9	56.9	56.9	96	55.8	0	1	202	0.00	29.954 
10:20	56.9	56.9	56.9	96	55.8	0	1	202	0.00	29.954 
10:25	56.9	56.9	56.9	96	55.8	0	1	202	0.00	29.954 
10:30	56.9	56.9	56.9	96	55.8	0	1	202	0.00	29.957 
10:35	56.9	56.9	56.9	96	55.8	0	1	202	0.01	29.957 
10:40	56.7	56.7	56.7	96	55.6	0	2	202	0.00	29.957 
10:45	56.7	56.7	56.7	96	55.6	1	3	202	0.00	29.956 
10:50	56.6	56.6	56.6	96	55.5	0	3	315	0.00	29.956 
10:55	56.7	56.7	56.7	96	55.6	0	2	315	0.00	29.956 
11:00	56.6	56.6	56.6	96	55.5	0	2	315	0.00	29.959 
11:05	56.3	56.3	56.3	96	55.2	1	4	315	0.00	29.959 
11:10	55.3	55.3	55.3	95	53.9	2	4	315	0.01	29.959 
11:15	54.7	54.7	54.7	96	53.6	0	2	315	0.00	29.957 
11:20	54.7	54.7	54.7	96	53.6	1	3	315	0.00	29.957 
11:25	54.5	54.5	54.5	96	53.4	1	2	315	0.00	29.957 
11:30	54.7	54.7	54.7	96	53.6	1	5	315	0.00	29.963 
11:35	54.4	54.4	54.4	96	53.3	2	7	292	0.00	29.963 
11:40	54.1	54.1	54.1	96	53.0	1	5	292	0.00	29.963 
11:45	54.2	54.2	54.2	96	53.1	0	1	292	0.00	29.965 
11:50	54.2	54.2	54.2	96	53.1	0	2	292	0.00	29.965 
11:55	54.2	54.2	54.2	96	53.1	0	2	292	0.01	29.965 
12:00	54.2	54.2	54.2	96	53.1	1	3	292	0.00	29.965 
12:05	54.1	54.1	54.1	96	53.0	1	4	315	0.00	29.965 
12:10	54.1	54.1	54.1	96	53.0	1	4	292	0.00	29.965 
12:15	54.1	54.1	54.1	96	53.0	0	2	338	0.00	29.963 
12:20	54.1	54.1	54.1	96	53.0	1	3	338	0.00	29.963 
12:25	53.9	53.9	53.9	95	52.5	1	3	315	0.01	29.963 
12:30	53.8	53.8	53.8	95	52.4	1	5	315	0.00	29.964 
12:35	53.6	53.6	53.6	95	52.2	1	5	270	0.00	29.964 
12:40	53.6	53.6	53.6	95	52.2	1	4	270	0.00	29.964 
12:45	53.6	53.6	53.6	95	52.2	1	4	270	0.00	29.963 
12:50	53.6	53.6	53.6	95	52.2	1	3	270	0.01	29.963 
12:55	53.6	53.6	53.6	95	52.2	0	2	270	0.00	29.963 
13:00	53.5	53.5	53.5	95	52.1	0	2	270	0.00	29.966 
13:05	53.3	53.3	53.3	95	51.9	0	3	270	0.00	29.966 
13:10	53.2	53.2	53.2	95	51.8	0	1	270	0.00	29.966 
13:15	53.2	53.2	53.2	95	51.8	0	1	270	0.00	29.970 
13:20	53.2	53.2	53.2	95	51.8	0	2	270	0.00	29.970 
13:25	53.2	53.2	53.2	95	51.8	1	2	270	0.00	29.970 
13:30	53.2	53.2	53.2	95	51.8	1	3	270	0.00	29.972 
13:35	52.9	52.9	52.9	95	51.5	1	4	270	0.00	29.972 
13:40	52.9	52.9	52.9	95	51.5	1	3	270	0.00	29.972 
13:45	52.9	52.9	52.9	95	51.5	1	4	315	0.00	29.966 
13:50	52.8	52.8	52.8	95	51.4	1	3	292	0.00	29.966 
13:55	52.8	52.8	52.8	95	51.4	2	5	292	0.00	29.966 
14:00	52.8	52.8	52.8	95	51.4	2	4	338	0.00	29.968 
14:05	52.3	52.3	52.3	94	50.6	2	5	270	0.00	29.968 
14:10	52.2	52.2	52.2	94	50.5	1	5	292	0.00	29.968 
14:15	52.0	52.0	52.0	94	50.3	1	4	0	0.00	29.971 
14:20	51.7	51.7	51.7	94	50.0	2	4	315	0.00	29.971 
14:25	51.6	51.6	51.6	94	49.9	1	3	315	0.00	29.971 
14:30	51.4	51.4	51.4	94	49.7	2	4	292	0.00	29.964 
14:35	51.1	51.1	51.1	93	49.1	2	5	270	0.00	29.964 
14:40	51.1	51.1	51.1	93	49.1	1	6	270	0.00	29.964 
14:45	51.0	51.0	51.0	93	49.0	1	5	292	0.00	29.970 
14:50	51.0	51.0	51.0	93	49.0	1	4	270	0.00	29.970 
14:55	51.1	51.1	51.1	93	49.1	1	3	315	0.00	29.970 
15:00	51.0	51.0	51.0	93	49.0	1	5	292	0.00	29.981 
15:05	50.8	50.8	50.8	92	48.6	2	6	270	0.00	29.981 
15:10	50.8	50.8	50.8	92	48.6	1	4	292	0.00	29.981 
15:15	51.0	51.0	51.0	92	48.8	0	1	292	0.00	29.982 
15:20	50.8	50.8	50.8	92	48.6	1	3	292	0.00	29.982 
15:25	50.8	50.8	50.8	92	48.6	2	4	292	0.00	29.982 
15:30	50.8	50.8	50.8	92	48.6	1	4	270	0.00	29.982 
15:35	50.8	50.8	50.8	92	48.6	1	3	270	0.00	29.982 
15:40	50.8	50.8	50.8	92	48.6	2	5	292	0.00	29.982 
15:45	50.8	50.8	50.8	91	48.3	1	4	292	0.00	29.983 
15:50	50.7	50.7	50.7	90	47.9	2	5	338	0.00	29.983 
15:55	50.7	50.7	50.7	90	47.9	1	5	270	0.00	29.983 
16:00	50.8	50.8	50.8	89	47.7	0	2	292	0.01	29.982 
16:05	50.8	50.8	50.8	89	47.7	1	4	292	0.00	29.982 
16:10	50.7	50.7	50.7	88	47.3	2	5	315	0.00	29.982 
16:15	50.5	50.5	50.5	88	47.1	1	4	315	0.00	29.981 
16:20	50.5	50.5	50.5	86	46.5	1	3	270	0.00	29.981 
16:25	50.4	50.4	50.4	86	46.4	1	5	270	0.00	29.981 
16:30	50.2	50.2	50.2	84	45.6	1	4	315	0.00	29.984 
16:35	50.1	50.1	50.1	84	45.5	1	4	315	0.00	29.984 
16:40	50.1	50.1	50.1	83	45.1	1	5	338	0.00	29.984 
16:45	50.1	50.1	50.1	84	45.5	1	3	338	0.00	30.001 
16:50	50.1	50.1	50.1	83	45.1	1	4	315	0.00	30.001 
16:55	50.1	50.1	50.1	83	45.1	1	3	315	0.00	30.001 
17:00	49.9	49.9	49.9	82	44.6	2	5	292	0.00	30.014 
17:05	49.9	49.9	49.9	81	44.3	2	6	292	0.00	30.014 
17:10	49.8	49.8	49.8	81	44.2	2	7	292	0.00	30.014 
17:15	49.8	49.8	49.8	81	44.2	1	5	315	0.00	30.015 
17:20	49.8	49.8	49.8	81	44.2	1	4	270	0.00	30.015 
17:25	49.8	49.8	49.8	81	44.2	0	2	270	0.00	30.015 
17:30	49.6	49.6	49.6	81	44.0	0	2	270	0.00	30.017 
17:35	49.6	49.6	49.6	82	44.3	1	4	270	0.00	30.017 
17:40	49.8	49.8	49.8	82	44.5	1	4	270	0.00	30.017 
17:45	49.6	49.6	49.6	82	44.3	1	4	270	0.00	30.032 
17:50	49.5	49.5	49.5	81	43.9	1	4	292	0.00	30.032 
17:55	49.2	49.2	49.2	80	43.3	1	5	292	0.00	30.032 
18:00	48.9	48.9	48.9	80	43.0	0	3	292	0.00	30.019 
18:05	48.8	48.8	48.8	80	42.9	0	1	292	0.00	30.019 
18:10	48.8	48.8	48.8	80	42.9	0	1	292	0.00	30.019 
18:15	48.6	48.6	48.6	80	42.7	0	1	292	0.00	30.019 
18:20	48.5	48.5	48.5	80	42.6	0	1	292	0.00	30.019 
18:25	48.3	48.3	48.3	80	42.4	0	2	292	0.00	30.019 
18:30	48.3	48.3	48.3	80	42.4	0	2	292	0.00	30.032 
18:35	48.2	48.2	48.2	80	42.3	0	3	315	0.00	30.032 
18:40	48.2	48.2	48.2	80	42.3	0	1	315	0.00	30.032 
18:45	48.0	48.0	48.0	80	42.1	0	1	315	0.00	30.029 
18:50	47.9	47.9	47.9	81	42.4	0	0	---	0.00	30.029 
18:55	47.9	47.9	47.9	81	42.4	0	3	315	0.00	30.029 
19:00	47.7	47.7	47.7	83	42.8	2	4	315	0.00	30.050 
19:05	47.4	47.4	47.4	84	42.8	1	3	315	0.00	30.050 
19:10	47.3	47.3	47.3	84	42.7	0	3	315	0.00	30.050 
19:15	47.0	47.0	47.0	85	42.7	0	2	315	0.00	30.050 
19:20	46.8	46.8	46.8	85	42.5	0	2	315	0.00	30.050 
19:25	46.7	46.7	46.7	86	42.7	0	3	315	0.00	30.050 
19:30	46.7	46.7	46.7	86	42.7	0	1	315	0.00	30.052 
19:35	46.5	46.5	46.5	86	42.5	0	1	315	0.00	30.052 
19:40	46.5	46.5	46.5	86	42.5	1	4	315	0.00	30.052 
19:45	46.5	46.5	46.5	86	42.5	1	4	338	0.00	30.066 
19:50	46.4	46.4	46.4	86	42.4	0	2	338	0.00	30.066 
19:55	46.4	46.4	46.4	85	42.1	0	1	338	0.00	30.066 
20:00	46.4	46.4	46.4	85	42.1	0	2	338	0.00	30.066 
20:05	46.4	46.4	46.4	85	42.1	0	1	338	0.00	30.066 
20:10	46.4	46.4	46.4	85	42.1	0	3	338	0.00	30.066 
20:15	46.4	46.4	46.4	85	42.1	0	2	338	0.00	30.085 
20:20	46.4	46.4	46.4	84	41.8	0	2	338	0.00	30.085 
20:25	46.4	46.4	46.4	84	41.8	0	2	338	0.00	30.085 
20:30	46.4	46.4	46.4	84	41.8	0	2	338	0.00	30.083 
20:35	46.4	46.4	46.4	84	41.8	0	2	338	0.00	30.083 
20:40	46.2	46.2	46.2	83	41.3	0	1	338	0.00	30.083 
20:45	46.2	46.2	46.2	83	41.3	0	2	338	0.00	30.086 
20:50	46.2	46.2	46.2	83	41.3	0	3	338	0.00	30.086 
20:55	46.2	46.2	46.2	83	41.3	0	1	270	0.00	30.086 
21:00	46.2	46.2	46.2	83	41.3	0	1	270	0.00	30.090 
21:05	46.1	46.1	46.1	83	41.2	0	2	270	0.00	30.090 
21:10	46.1	46.1	46.1	83	41.2	1	2	270	0.00	30.090 
21:15	46.1	46.1	46.1	83	41.2	0	3	270	0.00	30.097 
21:20	46.0	46.0	46.0	83	41.1	1	2	270	0.00	30.097 
21:25	46.0	46.0	46.0	83	41.1	1	3	270	0.00	30.097 
21:30	45.8	45.8	45.8	83	40.9	1	3	270	0.00	30.113 
21:35	45.8	45.8	45.8	83	40.9	1	3	270	0.00	30.113 
21:40	45.7	45.7	45.7	82	40.5	1	4	270	0.00	30.113 
21:45	45.5	45.5	45.5	82	40.3	1	5	270	0.00	30.118 
21:50	45.5	45.5	45.5	82	40.3	1	4	270	0.00	30.118 
21:55	45.4	45.4	45.4	82	40.2	2	4	270	0.00	30.118 
22:00	45.4	45.4	45.4	82	40.2	1	4	338	0.00	30.123 
22:05	45.4	45.4	45.4	83	40.5	0	2	338	0.00	30.123 
22:10	45.2	45.2	45.2	83	40.3	0	2	338	0.00	30.123 
22:15	45.1	45.1	45.1	83	40.3	1	3	338	0.00	30.112 
22:20	45.1	45.1	45.1	83	40.3	1	3	315	0.00	30.112 
22:25	44.9	44.9	44.9	83	40.1	1	3	315	0.00	30.112 
22:30	44.9	44.9	44.9	83	40.1	1	4	338	0.00	30.111 
22:35	44.8	44.8	44.8	83	40.0	0	3	338	0.00	30.111 
22:40	44.6	44.6	44.6	83	39.8	0	2	338	0.00	30.111 
22:45	44.6	44.6	44.6	83	39.8	0	2	338	0.00	30.105 
22:50	44.5	44.5	44.5	83	39.7	0	1	338	0.00	30.105 
22:55	44.3	44.3	44.3	84	39.8	0	2	338	0.00	30.105 
23:00	44.2	44.2	44.2	84	39.7	0	1	338	0.00	30.108 
23:05	44.2	44.2	44.2	84	39.7	0	2	338	0.00	30.108 
23:10	44.1	44.1	44.1	84	39.6	0	1	338	0.00	30.108 
23:15	44.1	44.1	44.1	84	39.6	1	3	338	0.00	30.119 
23:20	44.1	44.1	44.1	84	39.6	0	2	338	0.00	30.119 
23:25	44.1	44.1	44.1	84	39.6	0	2	315	0.00	30.119 
23:30	44.1	44.1	44.1	85	39.9	1	2	315	0.00	30.132 
23:35	43.9	43.9	43.9	85	39.7	1	5	292	0.00	30.132 
23:40	43.9	43.9	43.9	85	39.7	1	3	292	0.00	30.132 
23:45	43.8	43.8	43.8	85	39.6	1	5	292	0.00	30.138 
23:50	43.8	43.8	43.8	85	39.6	1	3	292	0.00	30.138 
23:55	43.6	43.6	43.6	85	39.4	1	4	292	0.00	30.138 

CoCoRaHS
IN-AL-39
A2 Web Hosting
Creative Commons License
GoDaddy
search engine by freefind advanced

loaded 2018-11-19 11:42:30 • last modified 2010-11-18 10:43:29
Privacy PolicyDisclaimer
• wx.awcolley.com is powered by PmWiki v.2002016 •
• all content (unless otherwise noted) © 2018 A W Colley